Time;durP1;ratioP1;P1;durP2;ratioP2;P2;SDS_P1;SDS_P2;PMS_P1;PMS_P2;Temp;Humidity;BMP_temperature;BMP_pressure;BME280_temperature;BME280_humidity;BME280_pressure;Samples;Min_cycle;Max_cycle;Signal;HPM_P1;HPM_P2
2022/10/16 00:01:28;;;;;;;0.30;0.30;;;14.30;99.90;;;;;;6250519;23;20386;-78
2022/10/16 00:03:59;;;;;;;0.65;0.30;;;14.30;99.90;;;;;;6240255;22;20461;-78
2022/10/16 00:06:28;;;;;;;0.17;0.17;;;14.20;99.90;;;;;;6238931;23;20386;-78
2022/10/16 00:08:55;;;;;;;0.20;0.20;;;14.30;99.90;;;;;;6240393;22;20385;-78
2022/10/16 00:11:27;;;;;;;0.22;0.22;;;14.30;99.90;;;;;;6238492;23;20833;-78
2022/10/16 00:14:01;;;;;;;0.30;0.30;;;14.20;99.90;;;;;;6248650;23;20389;-78
2022/10/16 00:16:28;;;;;;;0.30;0.30;;;14.30;99.90;;;;;;6241045;22;20537;-78
2022/10/16 00:18:57;;;;;;;0.30;0.30;;;14.30;99.90;;;;;;6249010;23;20385;-78
2022/10/16 00:21:27;;;;;;;0.40;0.40;;;14.30;99.90;;;;;;6239831;22;21109;-78
2022/10/16 00:24:04;;;;;;;0.30;0.30;;;14.30;99.90;;;;;;6239953;23;20386;-78
2022/10/16 00:26:32;;;;;;;0.38;0.10;;;14.30;99.90;;;;;;6240652;22;20389;-78
2022/10/16 00:28:59;;;;;;;0.30;0.30;;;14.20;99.90;;;;;;6238926;23;20393;-79
2022/10/16 00:31:26;;;;;;;0.30;0.30;;;14.20;99.90;;;;;;6238982;23;20386;-79
2022/10/16 00:33:53;;;;;;;0.30;0.30;;;14.20;99.90;;;;;;6238291;23;20412;-79
2022/10/16 00:36:24;;;;;;;0.20;0.20;;;14.20;99.90;;;;;;6238506;23;20947;-79
2022/10/16 00:38:55;;;;;;;0.28;0.28;;;14.20;99.90;;;;;;6248847;23;20394;-79
2022/10/16 00:41:24;;;;;;;0.40;0.40;;;14.20;99.90;;;;;;6248628;23;20717;-79
2022/10/16 00:43:57;;;;;;;0.22;0.22;;;14.30;99.90;;;;;;6237306;23;20393;-78
2022/10/16 00:46:30;;;;;;;0.38;0.38;;;14.30;99.90;;;;;;6250597;22;20424;-79
2022/10/16 00:49:01;;;;;;;0.38;0.38;;;14.30;99.90;;;;;;6238983;23;20393;-79
2022/10/16 00:51:36;;;;;;;0.30;0.30;;;14.30;99.90;;;;;;6238666;23;20444;-79
2022/10/16 00:54:06;;;;;;;0.28;0.28;;;14.40;99.90;;;;;;6240060;22;20398;-79
2022/10/16 00:56:33;;;;;;;0.20;0.20;;;14.40;99.90;;;;;;6241193;22;20409;-79
2022/10/16 00:59:07;;;;;;;0.10;0.10;;;14.40;99.90;;;;;;6250615;23;20393;-79
2022/10/16 01:01:34;;;;;;;0.10;0.10;;;14.50;99.90;;;;;;6242241;22;20397;-79
2022/10/16 01:04:01;;;;;;;0.57;0.20;;;14.50;99.90;;;;;;6251296;23;20873;-78
2022/10/16 01:07:04;;;;;;;0.15;0.15;;;14.50;99.90;;;;;;6242005;22;20770;-78
2022/10/16 01:09:54;;;;;;;0.20;0.13;;;14.50;99.90;;;;;;6240852;23;20394;-80
2022/10/16 01:12:26;;;;;;;0.10;0.10;;;14.50;99.90;;;;;;6240718;23;20420;-79
2022/10/16 01:15:10;;;;;;;0.20;0.20;;;14.60;99.90;;;;;;6256686;22;20398;-79
2022/10/16 01:17:53;;;;;;;0.10;0.10;;;14.60;99.90;;;;;;6240242;23;20386;-80
2022/10/16 01:20:37;;;;;;;0.10;0.10;;;14.60;99.90;;;;;;6241689;23;20396;-80
2022/10/16 01:23:07;;;;;;;0.20;0.20;;;14.60;99.90;;;;;;6251095;22;20451;-79
2022/10/16 01:26:17;;;;;;;0.10;0.10;;;14.60;99.90;;;;;;6252065;22;20397;-80
2022/10/16 01:29:16;;;;;;;0.10;0.10;;;14.60;99.90;;;;;;6240129;23;20393;-79
2022/10/16 01:31:49;;;;;;;0.30;0.30;;;14.60;99.90;;;;;;6241384;23;20394;-79
2022/10/16 01:34:20;;;;;;;0.30;0.20;;;14.60;99.90;;;;;;6241146;22;20401;-79
2022/10/16 01:36:58;;;;;;;0.10;0.10;;;14.50;99.90;;;;;;6242325;22;20452;-79
2022/10/16 01:39:35;;;;;;;0.17;0.10;;;14.50;99.90;;;;;;6250600;23;20401;-79
2022/10/16 01:42:11;;;;;;;0.20;0.20;;;14.50;99.90;;;;;;6241633;22;20813;-79
2022/10/16 01:44:39;;;;;;;0.25;0.25;;;14.40;99.90;;;;;;6241339;22;20389;-79
2022/10/16 01:47:10;;;;;;;0.10;0.10;;;14.50;99.90;;;;;;6241435;22;20386;-79
2022/10/16 01:49:39;;;;;;;0.30;0.20;;;14.40;99.90;;;;;;6241417;22;20618;-79
2022/10/16 01:52:17;;;;;;;0.20;0.20;;;14.40;99.90;;;;;;6241573;22;20386;-79
2022/10/16 01:54:47;;;;;;;0.15;0.15;;;14.40;99.90;;;;;;6239431;23;20398;-80
2022/10/16 01:57:20;;;;;;;0.10;0.10;;;14.40;98.20;;;;;;6249941;23;20885;-79
2022/10/16 01:59:53;;;;;;;0.10;0.10;;;14.40;82.10;;;;;;6241036;22;20386;-80
2022/10/16 02:02:22;;;;;;;0.13;0.13;;;14.40;61.10;;;;;;6241113;22;20421;-79
2022/10/16 02:04:56;;;;;;;0.17;0.17;;;14.40;28.60;;;;;;6249058;23;20877;-78
2022/10/16 02:07:26;;;;;;;0.20;0.20;;;14.40;12.50;;;;;;6241259;22;20464;-79
2022/10/16 02:09:54;;;;;;;0.10;0.10;;;14.40;1.00;;;;;;6241359;23;20439;-79
2022/10/16 02:12:26;;;;;;;0.10;0.10;;;14.40;1.00;;;;;;6249731;23;20447;-79
2022/10/16 02:14:53;;;;;;;0.20;0.20;;;14.40;1.00;;;;;;6240696;22;20465;-79
2022/10/16 02:17:20;;;;;;;0.10;0.10;;;14.40;1.00;;;;;;6239767;23;20396;-79
2022/10/16 02:19:54;;;;;;;0.10;0.10;;;14.40;1.00;;;;;;6239909;23;20413;-79
2022/10/16 02:22:27;;;;;;;0.10;0.10;;;14.50;1.00;;;;;;6214216;23;20389;-79
2022/10/16 02:25:01;;;;;;;0.20;0.20;;;14.40;1.00;;;;;;6240968;22;20479;-79
2022/10/16 02:27:49;;;;;;;0.10;0.10;;;14.40;1.00;;;;;;6239985;23;20389;-79
2022/10/16 02:30:21;;;;;;;0.50;0.32;;;14.50;1.00;;;;;;6241219;22;20390;-79
2022/10/16 02:32:49;;;;;;;0.20;0.20;;;14.50;1.00;;;;;;6238868;23;20397;-79
2022/10/16 02:35:18;;;;;;;0.10;0.10;;;14.40;1.00;;;;;;6238974;23;20394;-79
2022/10/16 02:37:46;;;;;;;0.10;0.10;;;14.40;1.00;;;;;;6251485;22;20730;-79
2022/10/16 02:40:17;;;;;;;0.17;0.17;;;14.40;1.00;;;;;;6249832;23;20393;-79
2022/10/16 02:42:52;;;;;;;0.10;0.10;;;14.40;1.00;;;;;;6251207;22;20389;-79
2022/10/16 02:45:19;;;;;;;0.20;0.20;;;14.30;1.00;;;;;;6239248;23;20389;-79
2022/10/16 02:47:54;;;;;;;0.10;0.10;;;14.30;1.00;;;;;;6239149;23;20386;-79
2022/10/16 02:50:22;;;;;;;0.20;0.20;;;14.30;1.00;;;;;;6241170;23;20394;-79
2022/10/16 02:52:51;;;;;;;0.20;0.20;;;14.40;1.00;;;;;;6240953;22;20699;-79
2022/10/16 02:55:18;;;;;;;0.20;0.20;;;14.30;1.00;;;;;;6239279;23;20394;-79
2022/10/16 02:57:45;;;;;;;2.00;0.20;;;14.40;1.00;;;;;;6240883;22;20729;-79
2022/10/16 03:00:17;;;;;;;0.20;0.20;;;14.40;1.00;;;;;;6250207;22;20398;-79
2022/10/16 03:02:43;;;;;;;0.07;0.07;;;14.40;1.00;;;;;;6241081;22;20398;-79
2022/10/16 03:05:10;;;;;;;0.15;0.15;;;14.40;1.00;;;;;;6240141;23;20455;-79
2022/10/16 03:07:37;;;;;;;0.10;0.10;;;14.40;1.00;;;;;;6240879;22;20404;-79
2022/10/16 03:10:04;;;;;;;0.20;0.20;;;14.30;1.00;;;;;;6239095;23;20393;-79
2022/10/16 03:12:31;;;;;;;0.10;0.10;;;14.30;1.00;;;;;;6238656;23;20398;-79
2022/10/16 03:14:58;;;;;;;0.20;0.20;;;14.30;1.00;;;;;;6240072;23;20447;-79
2022/10/16 03:17:25;;;;;;;0.10;0.10;;;14.30;1.00;;;;;;6240617;23;20395;-79
2022/10/16 03:19:52;;;;;;;0.20;0.20;;;14.30;1.00;;;;;;6240370;22;20390;-79
2022/10/16 03:22:19;;;;;;;0.10;0.10;;;14.40;1.00;;;;;;6240670;23;20439;-79
2022/10/16 03:24:46;;;;;;;0.10;0.10;;;14.40;1.00;;;;;;6240160;23;20385;-79
2022/10/16 03:27:12;;;;;;;0.10;0.10;;;14.40;1.00;;;;;;6240878;22;20444;-78
2022/10/16 03:29:39;;;;;;;0.20;0.20;;;14.40;1.00;;;;;;6240950;23;20484;-79
2022/10/16 03:32:12;;;;;;;0.20;0.20;;;14.50;1.00;;;;;;6251478;23;20396;-78
2022/10/16 03:34:38;;;;;;;0.20;0.20;;;14.40;1.00;;;;;;6238687;23;20386;-79
2022/10/16 03:37:05;;;;;;;0.20;0.20;;;14.40;1.00;;;;;;6238660;23;20932;-79
2022/10/16 03:39:32;;;;;;;0.20;0.20;;;14.40;1.00;;;;;;6240344;23;20447;-79
2022/10/16 03:41:58;;;;;;;0.28;0.28;;;14.40;1.00;;;;;;6250643;23;20789;-79
2022/10/16 03:44:25;;;;;;;0.10;0.10;;;14.30;1.00;;;;;;6248163;23;20857;-78
2022/10/16 03:46:52;;;;;;;0.20;0.20;;;14.40;1.00;;;;;;6239871;23;20393;-79
2022/10/16 03:49:18;;;;;;;0.10;0.10;;;14.30;1.00;;;;;;6239122;23;20390;-78
2022/10/16 03:51:45;;;;;;;0.10;0.10;;;14.40;1.00;;;;;;6238922;23;20408;-79
2022/10/16 03:54:12;;;;;;;0.15;0.15;;;14.40;1.00;;;;;;6238564;23;20394;-79
2022/10/16 03:56:55;;;;;;;0.00;0.00;;;14.40;1.00;;;;;;6238427;22;20416;-78
2022/10/16 03:59:22;;;;;;;0.10;0.10;;;14.40;1.00;;;;;;6239847;23;20389;-79
2022/10/16 04:01:49;;;;;;;0.20;0.20;;;14.40;1.00;;;;;;6240505;23;20389;-78
2022/10/16 04:04:19;;;;;;;0.10;0.10;;;14.30;1.00;;;;;;6238274;23;21054;-79
2022/10/16 04:06:45;;;;;;;0.10;0.10;;;14.30;1.00;;;;;;6240482;23;20794;-78
2022/10/16 04:09:12;;;;;;;0.10;0.10;;;14.30;1.00;;;;;;6240449;22;20451;-78
2022/10/16 04:11:39;;;;;;;0.20;0.20;;;14.30;1.00;;;;;;6240361;23;20452;-79
2022/10/16 04:14:05;;;;;;;0.10;0.10;;;14.30;1.00;;;;;;6238201;23;20390;-79
2022/10/16 04:16:35;;;;;;;0.10;0.10;;;14.40;1.00;;;;;;6248720;23;20386;-79
2022/10/16 04:19:02;;;;;;;0.13;0.13;;;14.40;1.00;;;;;;6240515;23;20389;-79
2022/10/16 04:21:32;;;;;;;0.10;0.10;;;14.40;1.00;;;;;;6240368;23;20416;-79
2022/10/16 04:23:59;;;;;;;0.10;0.10;;;14.40;1.00;;;;;;6245359;22;20390;-79
2022/10/16 04:26:25;;;;;;;0.20;0.20;;;14.50;1.00;;;;;;6250591;23;20826;-79
2022/10/16 04:28:52;;;;;;;0.20;0.20;;;14.50;1.00;;;;;;6250538;23;20444;-79
2022/10/16 04:31:19;;;;;;;0.20;0.20;;;14.50;1.00;;;;;;6240200;23;20396;-79
2022/10/16 04:33:48;;;;;;;0.35;0.20;;;14.50;1.00;;;;;;6240069;23;20453;-79
2022/10/16 04:36:18;;;;;;;0.20;0.20;;;14.40;1.00;;;;;;6250612;23;20920;-79
2022/10/16 04:38:44;;;;;;;0.10;0.10;;;14.40;1.00;;;;;;6242024;23;20732;-79
2022/10/16 04:41:13;;;;;;;0.20;0.20;;;14.40;1.00;;;;;;6240713;23;20398;-79
2022/10/16 04:43:43;;;;;;;0.20;0.20;;;14.30;1.00;;;;;;6240251;23;20400;-79
2022/10/16 04:46:13;;;;;;;0.22;0.22;;;14.30;1.00;;;;;;6241977;23;20424;-78
2022/10/16 04:48:39;;;;;;;0.13;0.13;;;14.30;1.00;;;;;;6240663;23;20385;-79
2022/10/16 04:51:06;;;;;;;0.10;0.10;;;14.20;1.00;;;;;;6242061;23;20393;-79
2022/10/16 04:53:34;;;;;;;0.13;0.13;;;14.20;1.00;;;;;;6241184;23;20393;-79
2022/10/16 04:56:06;;;;;;;0.10;0.10;;;14.20;1.00;;;;;;6240137;23;20390;-79
2022/10/16 04:58:36;;;;;;;0.20;0.20;;;14.20;1.00;;;;;;6242086;23;20436;-78
2022/10/16 05:01:03;;;;;;;0.20;0.20;;;14.20;1.00;;;;;;6241652;23;20397;-79
2022/10/16 05:03:29;;;;;;;0.10;0.10;;;14.20;1.00;;;;;;6240164;23;20378;-79
2022/10/16 05:05:58;;;;;;;0.10;0.10;;;14.20;1.00;;;;;;6240172;23;20390;-79
2022/10/16 05:08:25;;;;;;;0.10;0.10;;;14.30;1.00;;;;;;6251880;23;20389;-79
2022/10/16 05:10:51;;;;;;;0.10;0.10;;;14.30;1.00;;;;;;6241825;23;20447;-79
2022/10/16 05:13:18;;;;;;;0.28;0.28;;;14.30;1.00;;;;;;6240213;23;20397;-79
2022/10/16 05:15:48;;;;;;;0.30;0.30;;;14.20;1.00;;;;;;6250612;23;20393;-79
2022/10/16 05:18:15;;;;;;;0.20;0.20;;;14.20;1.00;;;;;;6240361;23;20393;-79
2022/10/16 05:20:42;;;;;;;0.10;0.10;;;14.20;1.00;;;;;;6251521;22;20741;-79
2022/10/16 05:23:12;;;;;;;0.10;0.10;;;14.20;1.00;;;;;;6239891;23;20390;-79
2022/10/16 05:25:58;;;;;;;0.20;0.20;;;14.10;1.00;;;;;;6240048;23;20880;-79
2022/10/16 05:28:30;;;;;;;0.10;0.10;;;14.10;1.00;;;;;;6240271;23;20476;-79
2022/10/16 05:30:57;;;;;;;0.30;0.30;;;14.00;1.00;;;;;;6249586;23;20439;-79
2022/10/16 05:33:25;;;;;;;0.30;0.30;;;14.00;1.00;;;;;;6241212;23;20393;-79
2022/10/16 05:35:51;;;;;;;0.10;0.10;;;13.90;1.00;;;;;;6250061;23;20397;-79
2022/10/16 05:38:25;;;;;;;0.10;0.10;;;13.80;1.00;;;;;;6242125;23;20464;-79
2022/10/16 05:40:56;;;;;;;0.10;0.10;;;13.80;1.00;;;;;;6241170;23;20439;-79
2022/10/16 05:43:22;;;;;;;0.20;0.20;;;13.80;1.00;;;;;;6239339;23;20440;-79
2022/10/16 05:45:57;;;;;;;0.10;0.10;;;13.80;1.00;;;;;;6239351;23;20475;-79
2022/10/16 05:48:25;;;;;;;0.40;0.35;;;13.80;1.00;;;;;;6241532;22;20397;-79
2022/10/16 05:51:03;;;;;;;0.38;0.17;;;13.80;1.00;;;;;;6239692;23;20470;-79
2022/10/16 05:53:32;;;;;;;0.10;0.10;;;13.80;1.00;;;;;;6240971;22;20398;-79
2022/10/16 05:55:59;;;;;;;0.10;0.10;;;13.80;1.00;;;;;;6241459;22;20401;-79
2022/10/16 05:58:31;;;;;;;0.30;0.30;;;13.80;1.00;;;;;;6241460;22;20392;-79
2022/10/16 06:01:11;;;;;;;0.30;0.30;;;13.90;1.00;;;;;;6241126;22;20467;-79
2022/10/16 06:03:39;;;;;;;0.40;0.40;;;13.90;1.00;;;;;;6249654;23;20386;-79
2022/10/16 06:06:16;;;;;;;0.43;0.20;;;14.00;1.00;;;;;;6241800;22;20764;-78
2022/10/16 06:08:47;;;;;;;0.28;0.28;;;14.00;1.00;;;;;;6250017;23;20389;-79
2022/10/16 06:11:24;;;;;;;0.30;0.20;;;14.00;1.00;;;;;;6241090;22;20440;-79
2022/10/16 06:13:56;;;;;;;0.30;0.30;;;14.10;1.00;;;;;;6241311;22;20386;-79
2022/10/16 06:16:24;;;;;;;0.30;0.30;;;14.20;1.00;;;;;;6240721;22;20394;-79
2022/10/16 06:18:53;;;;;;;0.30;0.30;;;14.20;1.00;;;;;;6240844;22;20390;-79
2022/10/16 06:21:24;;;;;;;0.32;0.32;;;14.20;1.00;;;;;;6241323;22;20461;-79
2022/10/16 06:23:52;;;;;;;0.10;0.10;;;14.30;1.00;;;;;;6240335;22;20551;-79
2022/10/16 06:26:24;;;;;;;0.30;0.30;;;14.40;1.00;;;;;;6240038;23;20432;-79
2022/10/16 06:28:56;;;;;;;0.30;0.30;;;14.40;1.00;;;;;;6239391;23;20420;-79
2022/10/16 06:31:30;;;;;;;0.32;0.32;;;14.50;1.00;;;;;;6240588;23;20452;-79
2022/10/16 06:33:58;;;;;;;0.30;0.30;;;14.50;1.00;;;;;;6240632;22;20480;-80
2022/10/16 06:36:26;;;;;;;0.30;0.30;;;14.50;1.00;;;;;;6241071;22;20390;-78
2022/10/16 06:38:55;;;;;;;0.30;0.30;;;14.50;1.00;;;;;;6240041;23;20452;-79
2022/10/16 06:41:22;;;;;;;0.30;0.30;;;14.50;1.00;;;;;;6239808;23;20443;-79
2022/10/16 06:43:49;;;;;;;0.40;0.40;;;14.50;1.00;;;;;;6238795;23;20440;-79
2022/10/16 06:46:18;;;;;;;0.30;0.30;;;14.50;1.00;;;;;;6250823;23;20877;-79
2022/10/16 06:48:45;;;;;;;0.32;0.32;;;14.50;1.00;;;;;;6240883;22;20390;-79
2022/10/16 06:51:22;;;;;;;0.70;0.20;;;14.60;1.00;;;;;;6240294;22;20451;-79
2022/10/16 06:53:56;;;;;;;0.30;0.30;;;14.60;1.00;;;;;;6238625;23;20884;-79
2022/10/16 06:56:31;;;;;;;1.00;0.40;;;14.70;1.00;;;;;;6250917;22;20393;-79
2022/10/16 06:58:59;;;;;;;0.30;0.30;;;14.80;1.00;;;;;;6239546;23;20390;-80
2022/10/16 07:01:26;;;;;;;0.30;0.30;;;14.80;1.00;;;;;;6240797;22;20444;-79
2022/10/16 07:03:53;;;;;;;0.35;0.35;;;14.90;1.00;;;;;;6249691;23;20412;-79
2022/10/16 07:06:24;;;;;;;0.40;0.30;;;14.90;1.00;;;;;;6241075;23;20381;-79
2022/10/16 07:08:53;;;;;;;0.40;0.40;;;14.90;1.00;;;;;;6241408;22;20389;-79
2022/10/16 07:11:22;;;;;;;0.47;0.47;;;14.90;1.00;;;;;;6241562;23;20386;-79
2022/10/16 07:13:50;;;;;;;0.50;0.50;;;15.00;1.00;;;;;;6240758;22;20385;-80
2022/10/16 07:16:26;;;;;;;2.80;0.45;;;15.00;1.00;;;;;;6239585;23;20401;-80
2022/10/16 07:18:58;;;;;;;0.40;0.40;;;14.90;1.00;;;;;;6250535;22;20382;-80
2022/10/16 07:21:28;;;;;;;0.60;0.50;;;14.90;1.00;;;;;;6251139;22;20773;-80
2022/10/16 07:23:58;;;;;;;0.50;0.50;;;14.80;1.00;;;;;;6239416;22;20386;-78
2022/10/16 07:26:26;;;;;;;0.65;0.65;;;14.80;1.00;;;;;;6239547;23;20385;-78
2022/10/16 07:28:53;;;;;;;0.40;0.40;;;14.80;1.00;;;;;;6241089;22;20433;-79
2022/10/16 07:31:24;;;;;;;0.40;0.40;;;14.80;1.00;;;;;;6240917;23;20393;-79
2022/10/16 07:33:51;;;;;;;0.40;0.40;;;14.80;1.00;;;;;;6239854;23;20394;-79
2022/10/16 07:36:20;;;;;;;0.35;0.35;;;14.80;1.00;;;;;;6239458;23;20451;-78
2022/10/16 07:38:47;;;;;;;0.30;0.30;;;14.80;1.00;;;;;;6250985;22;20381;-79
2022/10/16 07:41:17;;;;;;;0.30;0.30;;;14.80;1.00;;;;;;6250842;22;20695;-79
2022/10/16 07:43:59;;;;;;;0.43;0.43;;;14.80;1.00;;;;;;6237955;22;20408;-79
2022/10/16 07:46:27;;;;;;;0.40;0.40;;;14.80;1.00;;;;;;6248582;23;20871;-79
2022/10/16 07:48:57;;;;;;;0.30;0.30;;;14.80;1.00;;;;;;6240341;22;20393;-79
2022/10/16 07:51:26;;;;;;;0.40;0.40;;;14.80;1.00;;;;;;6250499;23;20389;-79
2022/10/16 07:53:53;;;;;;;0.30;0.30;;;14.90;1.00;;;;;;6237213;23;20411;-79
2022/10/16 07:56:21;;;;;;;0.30;0.30;;;14.90;1.00;;;;;;6240295;23;20422;-79
2022/10/16 07:58:50;;;;;;;0.30;0.30;;;15.00;1.00;;;;;;6240179;22;20390;-79
2022/10/16 08:01:19;;;;;;;0.30;0.30;;;15.00;1.00;;;;;;6240457;23;20443;-79
2022/10/16 08:03:51;;;;;;;0.40;0.40;;;15.00;1.00;;;;;;6248293;23;20416;-79
2022/10/16 08:06:21;;;;;;;0.45;0.45;;;15.10;1.00;;;;;;6240306;23;20738;-79
2022/10/16 08:08:54;;;;;;;0.30;0.30;;;15.10;1.00;;;;;;6242885;22;20841;-79
2022/10/16 08:11:21;;;;;;;0.40;0.40;;;15.20;1.00;;;;;;6240954;23;20444;-79
2022/10/16 08:13:47;;;;;;;0.30;0.30;;;15.30;1.00;;;;;;6241588;23;20444;-79
2022/10/16 08:16:14;;;;;;;0.50;0.38;;;15.30;1.00;;;;;;6242238;23;20394;-79
2022/10/16 08:18:41;;;;;;;0.35;0.35;;;15.40;1.00;;;;;;6252564;22;20386;-79
2022/10/16 08:21:14;;;;;;;0.47;0.47;;;15.30;1.00;;;;;;6242258;22;20385;-79
2022/10/16 08:23:47;;;;;;;0.30;0.30;;;15.30;1.00;;;;;;6242018;22;20444;-80
2022/10/16 08:26:22;;;;;;;0.30;0.30;;;15.20;1.00;;;;;;6251212;22;20746;-79
2022/10/16 08:28:55;;;;;;;0.20;0.20;;;15.20;1.00;;;;;;6242515;22;20386;-79
2022/10/16 08:31:23;;;;;;;0.40;0.40;;;15.10;1.00;;;;;;6242771;22;20408;-79
2022/10/16 08:33:51;;;;;;;0.32;0.32;;;15.10;1.00;;;;;;6242189;22;20382;-79
2022/10/16 08:36:17;;;;;;;0.57;0.55;;;15.20;1.00;;;;;;6239822;23;20393;-79
2022/10/16 08:38:48;;;;;;;0.38;0.38;;;15.20;1.00;;;;;;6242656;23;20400;-79
2022/10/16 08:41:45;;;;;;;0.32;0.32;;;15.20;1.00;;;;;;6240903;23;20386;-79
2022/10/16 08:44:47;;;;;;;0.43;0.43;;;15.20;1.00;;;;;;6241682;23;20385;-79
2022/10/16 08:47:24;;;;;;;0.30;0.30;;;15.40;1.00;;;;;;6240744;23;20390;-79
2022/10/16 08:50:08;;;;;;;0.45;0.45;;;15.50;1.00;;;;;;6240909;23;20401;-79
2022/10/16 08:52:40;;;;;;;0.40;0.40;;;15.60;1.00;;;;;;6240567;23;20496;-79
2022/10/16 08:55:37;;;;;;;0.38;0.38;;;15.60;1.00;;;;;;6240208;23;20393;-80
2022/10/16 08:58:40;;;;;;;0.77;0.43;;;15.60;1.00;;;;;;6241723;23;20402;-79
2022/10/16 09:01:15;;;;;;;0.40;0.40;;;15.70;1.00;;;;;;6118734;23;20424;-79
2022/10/16 09:04:24;;;;;;;0.22;0.22;;;15.80;1.00;;;;;;6093238;23;20404;-85
2022/10/16 09:07:32;;;;;;;0.50;0.50;;;15.90;1.00;;;;;;6119063;23;20399;-78
2022/10/16 09:10:04;;;;;;;0.43;0.43;;;16.00;1.00;;;;;;6118552;23;20412;-80
2022/10/16 09:12:57;;;;;;;0.60;0.60;;;16.00;1.00;;;;;;6118625;23;20931;-80
2022/10/16 09:15:46;;;;;;;0.50;0.50;;;16.10;1.00;;;;;;6118991;23;20411;-80
2022/10/16 09:18:24;;;;;;;0.73;0.73;;;16.20;1.00;;;;;;6128040;23;20397;-80
2022/10/16 09:21:19;;;;;;;0.47;0.47;;;16.30;1.00;;;;;;6128573;23;20392;-80
2022/10/16 09:23:48;;;;;;;0.50;0.50;;;16.30;1.00;;;;;;6118240;23;20392;-80
2022/10/16 09:26:16;;;;;;;0.60;0.60;;;16.30;1.00;;;;;;6118890;23;20392;-80
2022/10/16 09:28:43;;;;;;;0.50;0.50;;;16.30;1.00;;;;;;6118457;23;20904;-80
2022/10/16 09:31:30;;;;;;;0.50;0.50;;;16.50;1.00;;;;;;6095015;23;20424;-80
2022/10/16 09:34:05;;;;;;;0.60;0.60;;;16.90;1.00;;;;;;6103747;23;20781;-80
2022/10/16 09:36:41;;;;;;;0.70;0.70;;;17.30;1.00;;;;;;6124560;23;20900;-80
2022/10/16 09:39:11;;;;;;;0.60;0.60;;;17.40;1.00;;;;;;6241485;22;20447;-80
2022/10/16 09:41:44;;;;;;;0.98;0.98;;;17.40;1.00;;;;;;6240343;23;20386;-80
2022/10/16 09:44:29;;;;;;;0.70;0.70;;;17.20;99.90;;;;;;6239657;23;20741;-80
2022/10/16 09:47:14;;;;;;;1.50;0.85;;;17.20;98.60;;;;;;6240991;22;20397;-80
2022/10/16 09:49:59;;;;;;;1.40;0.80;;;17.40;99.90;;;;;;6240110;23;20944;-80
2022/10/16 09:52:26;;;;;;;0.60;0.60;;;17.70;99.90;;;;;;6241760;22;20400;-80
2022/10/16 09:54:56;;;;;;;0.60;0.60;;;18.00;1.00;;;;;;6241053;23;20394;-79
2022/10/16 09:57:23;;;;;;;0.70;0.70;;;18.20;1.00;;;;;;6241297;22;20448;-80
2022/10/16 09:59:56;;;;;;;0.77;0.77;;;18.50;99.90;;;;;;6241277;22;21154;-80
2022/10/16 10:02:40;;;;;;;0.80;0.80;;;18.70;99.90;;;;;;6241530;22;20394;-78
2022/10/16 10:05:29;;;;;;;0.40;0.40;;;18.70;5.80;;;;;;6241122;22;20393;-80
2022/10/16 10:07:59;;;;;;;0.50;0.50;;;18.70;1.00;;;;;;6240140;23;20402;-80
2022/10/16 10:10:31;;;;;;;0.68;0.68;;;18.60;99.90;;;;;;6241524;22;20439;-80
2022/10/16 10:12:59;;;;;;;0.70;0.70;;;18.40;1.00;;;;;;6248969;23;20393;-80
2022/10/16 10:15:29;;;;;;;1.00;0.90;;;17.90;99.90;;;;;;6239566;23;20394;-80
2022/10/16 10:18:01;;;;;;;0.75;0.75;;;17.70;1.00;;;;;;6241358;22;20673;-80
2022/10/16 10:20:32;;;;;;;1.42;1.25;;;17.70;43.90;;;;;;6239721;23;20439;-80
2022/10/16 10:22:59;;;;;;;0.70;0.70;;;18.00;1.00;;;;;;6250294;22;20389;-80
2022/10/16 10:25:38;;;;;;;0.52;0.52;;;18.60;1.00;;;;;;6240989;23;20416;-80
2022/10/16 10:28:17;;;;;;;0.50;0.50;;;19.40;1.00;;;;;;6240720;22;20397;-80
2022/10/16 10:30:57;;;;;;;0.68;0.68;;;20.10;1.00;;;;;;6241193;23;20416;-79
2022/10/16 10:33:28;;;;;;;0.50;0.50;;;20.30;30.80;;;;;;6240248;23;20535;-79
2022/10/16 10:36:09;;;;;;;0.70;0.63;;;20.70;1.00;;;;;;6239758;23;20398;-79
2022/10/16 10:38:51;;;;;;;0.70;0.60;;;21.10;1.00;;;;;;6241908;22;20444;-79
2022/10/16 10:41:42;;;;;;;0.60;0.60;;;21.30;1.00;;;;;;6242788;22;20390;-80
2022/10/16 10:44:28;;;;;;;0.63;0.63;;;21.50;1.00;;;;;;6240749;22;20394;-79
2022/10/16 10:47:01;;;;;;;0.73;0.73;;;21.80;1.00;;;;;;6240859;23;20389;-80
2022/10/16 10:50:21;;;;;;;0.50;0.50;;;21.60;99.90;;;;;;6239514;23;20624;-79
2022/10/16 10:53:18;;;;;;;0.73;0.73;;;22.10;99.90;;;;;;6127619;23;20508;-80
2022/10/16 10:55:52;;;;;;;0.60;0.60;;;22.70;99.90;;;;;;6248863;23;20396;-80
2022/10/16 10:58:57;;;;;;;0.70;0.70;;;23.00;99.90;;;;;;6240135;22;20923;-80
2022/10/16 11:01:49;;;;;;;0.60;0.60;;;24.10;99.90;;;;;;6240387;23;20398;-81
2022/10/16 11:04:35;;;;;;;0.60;0.60;;;24.10;99.90;;;;;;6248936;23;20730;-80
2022/10/16 11:07:09;;;;;;;0.65;0.65;;;23.70;99.90;;;;;;6241278;22;20390;-80
2022/10/16 11:09:51;;;;;;;0.52;0.52;;;23.20;99.90;;;;;;6240798;22;20451;-80
2022/10/16 11:12:26;;;;;;;0.57;0.57;;;23.10;99.90;;;;;;6240857;22;20581;-81
2022/10/16 11:15:18;;;;;;;0.50;0.50;;;22.90;99.90;;;;;;6239763;23;20409;-80
2022/10/16 11:17:54;;;;;;;0.60;0.60;;;22.90;99.90;;;;;;6240745;22;20444;-80
2022/10/16 11:20:28;;;;;;;0.60;0.60;;;22.90;99.90;;;;;;6240434;23;20718;-81
2022/10/16 11:23:23;;;;;;;0.60;0.60;;;22.90;99.90;;;;;;6238288;23;20443;-81
2022/10/16 11:25:53;;;;;;;1.00;0.55;;;23.00;99.90;;;;;;6232385;23;20397;-80
2022/10/16 11:28:24;;;;;;;0.60;0.60;;;23.00;99.90;;;;;;6240906;22;20737;-80
2022/10/16 11:31:15;;;;;;;0.77;0.77;;;22.70;99.90;;;;;;6240920;22;20477;-80
2022/10/16 11:34:15;;;;;;;2.17;0.63;;;22.40;99.90;;;;;;6239639;22;20821;-80
2022/10/16 11:36:50;;;;;;;0.60;0.60;;;22.10;99.90;;;;;;6240384;23;20386;-80
2022/10/16 11:39:16;;;;;;;0.85;0.60;;;22.10;99.90;;;;;;6240432;22;20467;-80
2022/10/16 11:42:07;;;;;;;0.40;0.40;;;22.50;99.90;;;;;;6250626;23;20846;-80
2022/10/16 11:44:47;;;;;;;0.70;0.65;;;22.80;99.90;;;;;;6239679;23;20398;-80
2022/10/16 11:47:26;;;;;;;0.50;0.50;;;23.70;99.90;;;;;;6238701;23;20385;-81
2022/10/16 11:50:43;;;;;;;0.40;0.40;;;24.60;99.90;;;;;;6239614;22;20417;-81
2022/10/16 11:53:43;;;;;;;0.40;0.40;;;25.00;99.90;;;;;;6239798;22;20389;-81
2022/10/16 11:56:20;;;;;;;0.60;0.60;;;25.40;99.90;;;;;;6240393;23;20393;-80
2022/10/16 11:59:13;;;;;;;0.50;0.50;;;24.80;99.90;;;;;;6239983;22;20394;-80
2022/10/16 12:01:48;;;;;;;0.50;0.50;;;24.40;99.90;;;;;;6238280;23;20404;-80
2022/10/16 12:04:29;;;;;;;0.50;0.50;;;24.50;99.90;;;;;;6238475;23;20483;-78
2022/10/16 12:07:11;;;;;;;0.40;0.40;;;24.80;99.90;;;;;;6239810;23;20394;-79
2022/10/16 12:09:41;;;;;;;0.50;0.50;;;24.80;99.90;;;;;;6240432;22;20444;-79
2022/10/16 12:12:37;;;;;;;0.30;0.30;;;24.50;99.90;;;;;;6239658;22;20390;-79
2022/10/16 12:15:27;;;;;;;0.40;0.40;;;24.30;99.90;;;;;;6239106;22;20389;-79
2022/10/16 12:18:23;;;;;;;0.90;0.40;;;24.70;99.90;;;;;;6239652;22;20912;-78
2022/10/16 12:21:06;;;;;;;0.40;0.40;;;24.90;99.90;;;;;;6248503;23;20408;-79
2022/10/16 12:23:38;;;;;;;0.40;0.40;;;24.90;99.90;;;;;;6249309;22;20382;-79
2022/10/16 12:26:05;;;;;;;0.40;0.40;;;25.00;99.90;;;;;;6239746;22;20389;-78
2022/10/16 12:28:33;;;;;;;0.90;0.50;;;24.80;99.90;;;;;;6237951;23;20394;-79
2022/10/16 12:31:01;;;;;;;0.40;0.40;;;24.80;99.90;;;;;;6239907;23;20733;-78
2022/10/16 12:33:56;;;;;;;0.40;0.40;;;24.80;99.90;;;;;;6237980;23;20390;-78
2022/10/16 12:36:32;;;;;;;0.40;0.40;;;24.90;99.90;;;;;;6239765;22;20394;-78
2022/10/16 12:39:02;;;;;;;0.30;0.30;;;25.20;99.90;;;;;;6240211;22;20389;-79
2022/10/16 12:41:31;;;;;;;0.40;0.40;;;25.50;99.90;;;;;;6240093;22;20774;-79
2022/10/16 12:44:01;;;;;;;0.30;0.30;;;25.80;99.90;;;;;;6239380;22;20448;-79
2022/10/16 12:46:36;;;;;;;0.40;0.40;;;26.10;99.90;;;;;;6239458;22;20443;-79
2022/10/16 12:49:15;;;;;;;0.50;0.50;;;25.80;99.90;;;;;;6238253;23;20394;-78
2022/10/16 12:51:42;;;;;;;0.40;0.40;;;25.00;99.90;;;;;;6240897;22;20398;-79
2022/10/16 12:54:37;;;;;;;0.50;0.50;;;24.50;99.90;;;;;;6241220;23;20389;-78
2022/10/16 12:57:32;;;;;;;0.63;0.50;;;23.70;99.90;;;;;;6241472;22;20401;-78
2022/10/16 13:00:17;;;;;;;0.50;0.50;;;23.40;99.90;;;;;;6118337;23;20858;-78
2022/10/16 13:03:13;;;;;;;0.30;0.30;;;23.10;99.90;;;;;;6118719;23;20496;-78
2022/10/16 13:06:04;;;;;;;0.50;0.40;;;22.80;99.90;;;;;;6118243;23;20404;-78
2022/10/16 13:08:53;;;;;;;0.50;0.50;;;22.40;99.90;;;;;;6118271;23;20396;-77
2022/10/16 13:11:27;;;;;;;0.50;0.50;;;22.20;99.90;;;;;;6118306;23;20559;-78
2022/10/16 13:14:31;;;;;;;1.70;0.40;;;22.00;99.90;;;;;;6117764;23;20400;-78
2022/10/16 13:17:19;;;;;;;0.43;0.43;;;21.90;99.90;;;;;;6060365;23;20411;-78
2022/10/16 13:20:26;;;;;;;0.40;0.40;;;21.90;99.90;;;;;;6094116;23;20400;-78
2022/10/16 13:23:26;;;;;;;0.50;0.50;;;21.80;99.90;;;;;;6127736;23;20458;-79
2022/10/16 13:26:26;;;;;;;0.40;0.40;;;22.00;99.90;;;;;;6118313;23;20491;-77
2022/10/16 13:29:00;;;;;;;0.50;0.50;;;22.10;99.90;;;;;;6118534;23;20392;-78
2022/10/16 13:31:28;;;;;;;0.50;0.50;;;22.20;99.90;;;;;;6118094;23;20429;-77